Keilor, Australia
Current Conditions -  °F | °C
As of 9:30 PM on Friday 24 Oct 2014 (Local Time) from YMML Reporting Station
Overcast Overcast  
Wind Chill: 59°   Ceiling: 700
Heat Index: 59°   Visibility: 5mi
Dew Point: 55°   Wind: 10mph
Humidity: 88%   Direction: 170°S
Pressure: 29.97"   Gusts: NA
Location:  37.72°S, 144.83°E
Report Text: YMML 241030Z 17009KT 8000 OVC007 15/13 Q1015 FM1030 19010KT 8000 HZ BKN008
Loading
Personal Weather Stations






























Interactive Weather Map
Tropical Storm Tracking
New forecast layout! Learn more

10-Day Weather Forecast

Advertisements
Track Severe Weather on mobile